Latest Weather Observations for Bankstown

IDN60801

Issued at 2:35 pm EST Tuesday 16 September 2014 (issued every 30 minutes, with the page automatically refreshed every 10 minutes)

About weather observations | Map of weather stations | Latest weather observations for NSW | Other Formats
Station Details ID: 066137 Name: BANKSTOWN AIRPORT AWS Lat: -33.92 Lon: 150.99 Height: 6.5 m
Data from the previous 72 hours. | See also: Recent months at Bankstown
Date/Time
EST
Temp
°C
App
Temp
°C
Dew
Point
Rel
Hum
%
Delta-T
°C
Wind Press
QNH
hPa
Press
MSL
hPa
Rain
since 9 am
mm
Dir
 
Spd
km/h
Gust
km/h
Spd
kts
Gust
kts
16/02:30pm 23.9 20.5 10.6 43 7.4 WNW 19 30 10 16 1005.4 1005.4 -
16/02:00pm 21.4 20.4 12.3 56 5.1 NNW 9 11 5 6 1005.6 1005.6 -
16/01:30pm 21.4 19.9 12.0 55 5.3 WNW 11 17 6 9 1006.0 1006.0 -
16/01:00pm 21.5 20.2 12.4 56 5.2 NNW 11 17 6 9 1006.1 1006.1 -
16/11:30am 19.1 18.6 12.8 67 3.5 NW 7 11 4 6 1008.7 1008.7 0.0
16/11:00am 18.6 18.6 13.5 72 2.9 NNW 6 9 3 5 1009.3 1009.3 0.0
16/10:30am 17.0 15.7 12.5 75 2.5 W 11 17 6 9 1010.1 1010.1 0.0
16/10:00am 17.0 16.6 12.9 77 2.3 W 7 13 4 7 1010.3 1010.3 0.0
16/09:30am 17.4 15.5 13.1 76 2.4 W 15 22 8 12 1010.6 1010.6 0.0
16/09:00am 16.2 15.9 12.7 80 1.9 WSW 6 9 3 5 1010.2 1010.2 0.0
16/08:30am 15.7 14.4 12.6 82 1.7 WNW 11 19 6 10 1011.0 1011.0 0.0
16/08:00am 15.3 12.8 12.4 83 1.6 E 17 22 9 12 1010.4 1010.4 0.0
16/07:30am 14.6 14.1 12.6 88 1.1 SSW 7 11 4 6 1012.2 1012.2 0.0
16/07:00am 13.9 13.3 12.3 90 0.9 WSW 7 9 4 5 1012.2 1012.2 0.0
16/06:30am 13.2 13.6 11.4 89 1.0 CALM 0 0 0 0 1011.6 1011.6 0.0
16/06:00am 13.4 12.8 11.6 89 1.0 N 6 9 3 5 1011.9 1011.9 0.0
16/05:30am 13.5 12.9 11.7 89 1.0 SE 6 7 3 4 1012.1 1012.1 0.0
16/05:00am 13.4 12.3 11.8 90 0.9 SW 9 15 5 8 1012.9 1012.9 0.0
16/04:30am 13.6 12.2 12.2 91 0.8 NNE 11 17 6 9 1012.2 1012.2 0.0
16/04:00am 13.3 12.8 11.9 91 0.7 SSW 6 7 3 4 1012.6 1012.6 0.0
16/03:30am 12.7 13.1 11.1 90 0.8 CALM 0 0 0 0 1012.7 1012.7 0.0
16/03:00am 12.8 13.1 11.0 89 0.9 CALM 0 0 0 0 1012.7 1012.7 0.0
16/02:30am 13.1 13.5 11.3 89 1.0 CALM 0 0 0 0 1013.1 1013.1 0.0
16/02:00am 13.2 13.6 11.3 88 1.0 CALM 0 0 0 0 1013.0 1013.0 0.0
16/01:30am 13.4 12.3 10.8 84 1.4 WNW 7 7 4 4 1013.5 1013.5 0.0
16/01:00am 14.9 13.7 11.7 81 1.7 N 9 17 5 9 1014.0 1014.0 0.0
16/12:30am 15.3 13.9 12.2 82 1.7 ENE 11 17 6 9 1014.0 1014.0 0.0
16/12:00am 15.1 15.1 12.4 84 1.5 NW 4 7 2 4 1015.9 1015.9 0.0
 
Date/Time
EST
Temp
°C
App
Temp
°C
Dew
Point
Rel
Hum
%
Delta-T
°C
Wind Press
QNH
hPa
Press
MSL
hPa
Rain
since 9 am
mm
Dir
 
Spd
km/h
Gust
km/h
Spd
kts
Gust
kts
15/11:30pm 14.7 15.3 12.0 84 1.5 CALM 0 0 0 0 1015.8 1015.8 0.0
15/11:00pm 14.7 15.2 11.5 81 1.7 CALM 0 2 0 1 1015.8 1015.8 0.0
15/10:30pm 15.1 14.9 11.7 80 1.8 W 4 7 2 4 1015.8 1015.8 0.0
15/10:00pm 15.4 15.9 11.6 78 2.0 CALM 0 0 0 0 1016.0 1016.0 0.0
15/09:30pm 15.0 15.5 11.6 80 1.8 CALM 0 2 0 1 1016.3 1016.3 0.0
15/09:00pm 13.9 12.8 9.9 77 2.1 W 6 7 3 4 1016.4 1016.4 0.0
15/08:30pm 16.2 15.4 10.9 71 2.8 NNE 6 7 3 4 1016.2 1016.2 0.0
15/08:00pm 16.7 15.8 11.2 70 3.0 NNE 7 9 4 5 1016.1 1016.1 0.0
15/07:30pm 17.0 15.7 11.1 68 3.2 NE 9 13 5 7 1015.9 1015.9 0.0
15/07:00pm 17.4 15.3 11.0 66 3.4 NE 13 19 7 10 1015.7 1015.7 0.0
15/06:30pm 17.7 15.4 10.3 62 3.9 NE 13 19 7 10 1015.3 1015.3 0.0
15/06:00pm 17.8 15.1 10.2 61 4.0 ENE 15 24 8 13 1015.2 1015.2 0.0
15/05:30pm 18.4 15.2 10.0 58 4.5 NE 17 24 9 13 1014.9 1014.9 0.0
15/05:00pm 18.9 15.0 9.4 54 5.0 ENE 20 28 11 15 1014.8 1014.8 0.0
15/04:30pm 19.3 15.5 9.2 52 5.3 NE 19 28 10 15 1014.7 1014.7 0.0
15/04:00pm 19.8 15.9 9.4 51 5.5 ENE 20 28 11 15 1014.5 1014.5 0.0
15/03:30pm 20.1 16.8 9.7 51 5.6 NE 17 24 9 13 1014.5 1014.5 0.0
15/03:00pm 20.1 16.3 9.7 51 5.5 NE 20 24 11 13 1014.5 1014.5 0.0
15/02:30pm 20.4 16.5 9.6 50 5.8 E 20 26 11 14 1014.7 1014.7 0.0
15/02:00pm 20.5 16.6 8.8 47 6.2 E 19 28 10 15 1014.8 1014.8 0.0
15/01:30pm 21.7 19.4 4.7 33 8.3 NNE 6 13 3 7 1015.0 1015.0 0.0
15/01:00pm 21.6 19.3 5.5 35 8.0 WSW 7 11 4 6 1015.5 1015.5 0.0
15/12:30pm 21.7 19.5 6.4 37 7.8 W 7 13 4 7 1016.0 1016.0 0.0
15/12:00pm 20.5 18.3 6.1 39 7.2 NNE 7 15 4 8 1016.5 1016.5 0.0
15/11:30am 20.4 18.5 6.7 41 6.9 NNW 6 11 3 6 1017.1 1017.1 0.0
15/11:00am 19.4 18.4 9.0 51 5.4 NE 4 9 2 5 1017.4 1017.4 0.0
15/10:30am 19.0 17.4 8.9 52 5.3 NNE 7 11 4 6 1017.7 1017.7 0.0
15/10:00am 17.7 16.6 10.1 61 4.0 WNW 6 9 3 5 1018.0 1018.0 0.0
15/09:30am 17.4 16.4 11.0 66 3.4 NNW 7 13 4 7 1018.4 1018.4 0.0
15/09:00am 17.2 16.3 11.5 69 3.1 W 7 11 4 6 1018.7 1018.7 0.0
15/08:30am 16.1 15.5 11.7 75 2.4 SSW 6 13 3 7 1018.8 1018.8 0.0
15/08:00am 14.4 13.5 11.4 82 1.6 SSW 7 11 4 6 1019.0 1019.0 0.0
15/07:30am 13.5 12.7 11.6 88 1.0 SSW 7 11 4 6 1018.9 1018.9 0.0
15/07:00am 12.7 13.1 11.4 92 0.7 CALM 0 0 0 0 1018.8 1018.8 0.0
15/06:30am 11.7 10.7 10.3 91 0.7 NNW 6 7 3 4 1018.7 1018.7 0.0
15/06:00am 11.2 11.2 9.8 91 0.7 CALM 0 0 0 0 1018.5 1018.5 0.0
15/05:30am 11.5 11.6 10.2 92 0.7 CALM 0 0 0 0 1018.2 1018.2 0.0
15/05:00am 11.0 10.9 9.6 91 0.7 CALM 0 0 0 0 1018.0 1018.0 0.0
15/04:30am 11.0 10.6 9.6 91 0.7 SSW 2 6 1 3 1018.1 1018.1 0.0
15/04:01am 10.7 10.5 9.1 90 0.8 CALM 0 0 0 0 1018.1 1018.1 0.0
15/04:00am 10.7 10.5 9.1 90 0.8 CALM 0 0 0 0 1018.1 1018.1 0.0
15/03:42am 10.7 10.5 9.1 90 0.8 CALM 0 0 0 0 1018.1 1018.1 0.0
15/03:30am 10.9 10.8 9.3 90 0.8 CALM 0 0 0 0 1018.1 1018.1 0.0
15/03:20am 11.0 10.9 9.3 89 0.8 CALM 0 0 0 0 1018.1 1018.1 0.0
15/03:00am 10.9 10.7 9.0 88 0.9 CALM 0 0 0 0 1018.0 1018.0 0.0
15/02:51am 11.2 11.1 9.3 88 1.0 CALM 0 0 0 0 1018.1 1018.1 0.0
15/02:30am 12.3 12.5 10.4 88 1.0 CALM 0 0 0 0 1018.1 1018.1 0.0
15/02:00am 12.8 13.0 10.7 87 1.1 CALM 0 0 0 0 1018.2 1018.2 0.0
15/01:30am 13.6 14.0 11.3 86 1.2 CALM 0 0 0 0 1018.6 1018.6 0.0
15/01:00am 14.0 13.7 11.3 84 1.4 S 4 7 2 4 1018.9 1018.9 0.0
15/12:30am 14.5 13.7 11.8 84 1.5 SW 7 9 4 5 1019.2 1019.2 0.0
15/12:00am 14.4 15.1 12.1 86 1.2 CALM 0 0 0 0 1019.3 1019.3 0.0
 
Date/Time
EST
Temp
°C
App
Temp
°C
Dew
Point
Rel
Hum
%
Delta-T
°C
Wind Press
QNH
hPa
Press
MSL
hPa
Rain
since 9 am
mm
Dir
 
Spd
km/h
Gust
km/h
Spd
kts
Gust
kts
14/11:30pm 14.3 15.0 12.2 87 1.1 CALM 0 0 0 0 1019.5 1019.5 0.0
14/11:00pm 14.0 14.6 12.0 88 1.1 CALM 0 0 0 0 1019.4 1019.4 0.0
14/10:30pm 13.8 13.2 11.8 88 1.1 SW 6 7 3 4 1019.6 1019.6 0.0
14/10:00pm 13.3 12.4 11.4 88 1.0 SW 7 9 4 5 1019.6 1019.6 0.0
14/09:30pm 14.1 13.5 11.6 85 1.3 SSW 6 7 3 4 1019.4 1019.4 0.0
14/09:00pm 15.0 15.7 12.3 84 1.5 CALM 0 0 0 0 1019.3 1019.3 0.0
14/08:30pm 15.3 14.8 12.1 81 1.7 S 6 7 3 4 1019.4 1019.4 0.0
14/08:00pm 16.1 14.4 12.5 79 2.0 S 13 17 7 9 1019.4 1019.4 0.0
14/07:30pm 16.7 14.6 12.3 75 2.4 SSE 15 20 8 11 1019.0 1019.0 0.0
14/07:00pm 16.8 14.3 12.3 75 2.5 SE 17 24 9 13 1018.4 1018.4 0.0
14/06:30pm 16.9 13.4 12.2 74 2.6 SE 22 32 12 17 1017.6 1017.6 0.0
14/06:00pm 17.2 14.0 11.9 71 2.9 SE 20 32 11 17 1017.4 1017.4 0.0
14/05:30pm 17.6 13.3 10.9 65 3.6 SE 24 30 13 16 1017.0 1017.0 0.0
14/05:00pm 18.1 13.2 11.4 65 3.6 SE 28 35 15 19 1016.7 1016.7 0.0
14/04:30pm 18.5 13.6 11.3 63 3.9 ESE 28 35 15 19 1016.1 1016.1 0.0
14/04:00pm 19.7 15.1 12.2 62 4.2 ESE 28 35 15 19 1016.0 1016.0 0.0
14/03:30pm 20.9 16.1 11.5 55 5.2 ESE 28 33 15 18 1015.7 1015.7 0.0
14/03:00pm 22.2 16.8 11.0 49 6.2 ESE 30 37 16 20 1015.6 1015.6 0.0
14/02:46pm 22.9 17.3 10.3 45 6.9 ESE 30 39 16 21 1015.4 1015.4 0.0
14/02:30pm 24.3 21.0 4.6 28 9.8 SSW 11 19 6 10 1015.3 1015.3 0.0
14/02:00pm 23.9 20.6 4.8 29 9.5 SSE 11 15 6 8 1015.5 1015.5 0.0
14/01:30pm 23.5 21.1 7.2 35 8.5 E 9 13 5 7 1016.0 1016.0 0.0
14/01:00pm 23.3 21.0 7.4 36 8.3 SSW 9 15 5 8 1016.4 1016.4 0.0
14/12:30pm 23.0 21.3 8.3 39 7.8 SSW 7 13 4 7 1017.0 1017.0 0.0
14/12:00pm 22.8 21.1 9.9 44 7.0 N 9 15 5 8 1017.5 1017.5 0.0
14/11:30am 21.7 19.4 8.9 44 6.8 WNW 11 17 6 9 1018.2 1018.2 0.0
14/11:00am 20.6 19.6 11.0 54 5.3 N 7 13 4 7 1018.5 1018.5 0.0
14/10:30am 19.4 17.5 10.4 56 4.8 W 11 15 6 8 1019.1 1019.1 0.0
14/10:00am 19.0 17.9 12.0 64 3.9 NNW 9 17 5 9 1019.6 1019.6 0.0
14/09:30am 17.1 16.3 12.8 76 2.4 NNW 9 13 5 7 1020.2 1020.2 0.0
14/09:00am 15.3 15.0 14.5 95 0.5 NW 9 13 5 7 1020.6 1020.6 0.0
14/08:50am 14.6 14.5 14.0 96 0.3 N 7 11 4 6 1020.8 1020.8 0.0
14/08:45am 14.4 14.3 13.8 96 0.3 NNW 7 9 4 5 1020.8 1020.8 0.0
14/08:30am 13.1 12.6 12.5 96 0.3 NW 7 11 4 6 1020.8 1020.8 0.0
14/08:00am 12.2 11.3 11.4 95 0.4 NW 7 9 4 5 1020.8 1020.8 0.0
14/07:30am 11.8 11.0 11.0 95 0.4 NW 6 7 3 4 1020.6 1020.6 0.0
14/07:00am 11.6 11.1 10.7 94 0.5 NE 4 9 2 5 1020.4 1020.4 0.0
14/06:30am 10.7 10.7 9.8 94 0.5 CALM 0 0 0 0 1020.4 1020.4 0.0
14/06:20am 10.3 10.1 9.2 93 0.5 CALM 0 0 0 0 1020.3 1020.3 0.0
14/06:00am 9.9 9.6 8.8 93 0.5 CALM 0 0 0 0 1020.4 1020.4 0.0
14/05:54am 9.7 9.4 8.5 92 0.6 CALM 0 0 0 0 1020.4 1020.4 0.0
14/05:30am 10.7 10.6 9.6 93 0.6 CALM 0 0 0 0 1020.4 1020.4 0.0
14/05:17am 10.6 10.5 9.5 93 0.6 CALM 0 0 0 0 1020.5 1020.5 0.0
14/05:00am 10.2 10.0 9.0 92 0.6 CALM 0 0 0 0 1020.5 1020.5 0.0
14/04:30am 10.4 10.2 9.0 91 0.7 CALM 0 0 0 0 1020.3 1020.3 0.0
14/04:00am 10.6 10.4 9.2 91 0.7 CALM 0 0 0 0 1020.3 1020.3 0.0
14/03:31am 11.1 11.0 9.5 90 0.8 CALM 0 0 0 0 1020.5 1020.5 0.0
14/03:30am 11.2 11.1 9.6 90 0.8 CALM 0 0 0 0 1020.5 1020.5 0.0
14/03:00am 12.0 12.2 10.4 90 0.8 CALM 0 0 0 0 1020.7 1020.7 0.0
14/02:47am 12.2 12.4 10.6 90 0.8 CALM 0 0 0 0 1020.9 1020.9 0.0
14/02:30am 12.0 12.1 10.1 88 1.0 CALM 0 0 0 0 1021.2 1021.2 0.0
14/02:24am 12.5 12.7 10.6 88 1.0 CALM 0 0 0 0 1021.2 1021.2 0.0
14/02:00am 13.1 13.4 11.0 87 1.1 CALM 0 0 0 0 1021.4 1021.4 0.0
14/01:30am 13.9 14.3 11.4 85 1.3 CALM 0 0 0 0 1021.9 1021.9 0.0
14/01:00am 14.5 15.1 12.0 85 1.3 CALM 0 0 0 0 1022.3 1022.3 0.0
14/12:30am 14.4 15.1 12.3 87 1.1 CALM 0 0 0 0 1022.5 1022.5 0.0
14/12:00am 14.1 14.7 11.8 86 1.2 CALM 0 0 0 0 1022.7 1022.7 0.0
 
Date/Time
EST
Temp
°C
App
Temp
°C
Dew
Point
Rel
Hum
%
Delta-T
°C
Wind Press
QNH
hPa
Press
MSL
hPa
Rain
since 9 am
mm
Dir
 
Spd
km/h
Gust
km/h
Spd
kts
Gust
kts
13/11:30pm 14.1 14.7 11.8 86 1.2 CALM 0 0 0 0 1022.8 1022.8 0.0
13/11:00pm 14.3 14.9 11.8 85 1.3 CALM 0 0 0 0 1023.1 1023.1 0.0
13/10:30pm 14.7 15.3 12.0 84 1.5 CALM 0 0 0 0 1023.4 1023.4 0.0
13/10:00pm 14.8 15.5 12.3 85 1.4 CALM 0 0 0 0 1023.6 1023.6 0.0
13/09:30pm 14.2 14.8 11.9 86 1.2 CALM 0 0 0 0 1023.6 1023.6 0.0
13/09:00pm 13.9 13.9 11.2 84 1.4 E 2 7 1 4 1023.5 1023.5 0.0
13/08:30pm 15.5 16.0 11.7 78 2.1 CALM 0 0 0 0 1023.6 1023.6 0.0
13/08:00pm 15.9 16.1 11.9 77 2.2 E 2 6 1 3 1023.6 1023.6 0.0
13/07:30pm 16.1 15.0 11.9 76 2.3 E 9 13 5 7 1023.6 1023.6 0.0
13/07:00pm 16.0 14.9 11.8 76 2.3 E 9 13 5 7 1023.5 1023.5 0.0
13/06:30pm 16.0 14.4 11.6 75 2.4 E 11 17 6 9 1023.3 1023.3 0.0
13/06:00pm 16.1 14.0 11.3 73 2.6 E 13 17 7 9 1023.0 1023.0 0.0
13/05:30pm 16.5 14.0 11.2 71 2.9 ENE 15 20 8 11 1022.6 1022.6 0.0
13/05:00pm 16.9 14.1 11.2 69 3.1 ENE 17 24 9 13 1022.5 1022.5 0.0
13/04:30pm 17.1 14.6 11.2 68 3.2 ENE 15 22 8 12 1022.5 1022.5 0.0
13/04:00pm 17.4 14.2 11.2 67 3.3 ENE 19 24 10 13 1022.4 1022.4 0.0
13/03:30pm 17.9 15.1 11.2 65 3.6 ENE 17 22 9 12 1022.6 1022.6 0.0
13/03:00pm 17.7 14.3 11.3 66 3.5 E 20 24 11 13 1023.0 1023.0 0.0

Other Formats:

Comma delimited format used in spreadsheet applications
http://www.bom.gov.au/fwo/IDN60801/IDN60801.94765.axf

JavaScript Object Notation format (JSON) in row-major order
http://www.bom.gov.au/fwo/IDN60801/IDN60801.94765.json